Time;durP1;ratioP1;P1;durP2;ratioP2;P2;SDS_P1;SDS_P2;PMS_P1;PMS_P2;Temp;Humidity;BMP_temperature;BMP_pressure;BME280_temperature;BME280_humidity;BME280_pressure;Samples;Min_cycle;Max_cycle;Signal;HPM_P1;HPM_P2
2022/12/15 00:40:16;;;;;;;1.27;1.23;;;;;;;0.44;80.52;98481.44;5077260;28;20528;-72
2022/12/15 00:42:46;;;;;;;1.13;1.08;;;;;;;0.44;80.13;98471.41;5075190;28;20289;-72
2022/12/15 00:45:17;;;;;;;2.47;2.05;;;;;;;0.48;80.57;98488.22;5075654;28;20499;-74
2022/12/15 00:47:44;;;;;;;1.20;1.10;;;;;;;0.47;80.41;98491.53;5072571;28;20045;-75
2022/12/15 01:22:00;;;;;;;2.95;2.40;;;;;;;0.37;80.74;98507.22;5076575;28;20493;-73
2022/12/15 01:24:29;;;;;;;1.25;1.23;;;;;;;0.38;80.89;98516.44;5058121;28;20050;-74
2022/12/15 01:26:57;;;;;;;1.90;1.80;;;;;;;0.38;80.92;98518.97;5074442;28;20039;-72
2022/12/15 01:29:27;;;;;;;1.63;1.40;;;;;;;0.40;81.31;98529.88;5075262;28;20135;-72
2022/12/15 01:31:56;;;;;;;1.42;1.33;;;;;;;0.41;80.70;98531.53;5061935;28;20045;-72
2022/12/15 01:34:25;;;;;;;1.77;1.60;;;;;;;0.41;80.79;98521.50;5069832;28;20044;-73
2022/12/15 01:36:54;;;;;;;2.83;2.63;;;;;;;0.38;80.93;98511.44;5076067;28;20037;-72
2022/12/15 01:39:22;;;;;;;9.55;5.40;;;;;;;0.37;81.20;98524.78;5076008;28;20510;-72
2022/12/15 01:41:50;;;;;;;2.08;1.98;;;;;;;0.36;81.38;98538.16;5073760;28;20039;-72
2022/12/15 01:44:20;;;;;;;2.55;2.35;;;;;;;0.39;80.90;98548.22;5075881;28;20036;-73
2022/12/15 01:46:54;;;;;;;3.13;2.05;;;;;;;0.40;81.04;98539.91;5074312;28;20052;-74
2022/12/15 01:49:29;;;;;;;1.58;1.48;;;;;;;0.38;81.40;98541.53;5074455;28;20041;-74
2022/12/15 01:52:01;;;;;;;2.08;1.98;;;;;;;0.37;81.18;98548.22;5074328;28;20052;-74
2022/12/15 01:54:34;;;;;;;1.58;1.48;;;;;;;0.38;81.64;98551.56;5075763;28;20045;-74
2022/12/15 01:57:06;;;;;;;2.60;2.40;;;;;;;0.34;81.64;98545.63;5075762;28;20094;-73
2022/12/15 01:59:39;;;;;;;1.58;1.42;;;;;;;0.31;81.69;98548.06;5062208;28;20049;-73
2022/12/15 02:02:09;;;;;;;3.33;2.55;;;;;;;0.30;81.44;98535.50;5071023;28;20502;-72
2022/12/15 02:04:38;;;;;;;1.15;1.05;;;;;;;0.27;81.87;98546.31;5054688;28;20045;-74
2022/12/15 02:07:11;;;;;;;2.92;2.72;;;;;;;0.25;82.01;98537.91;5054045;28;20465;-74
2022/12/15 02:09:40;;;;;;;1.15;1.05;;;;;;;0.27;81.78;98532.91;5054325;28;20049;-72
2022/12/15 02:12:21;;;;;;;1.95;1.85;;;;;;;0.24;82.47;98540.41;5060134;28;20040;-75
2022/12/15 02:15:10;;;;;;;0.85;0.85;;;;;;;0.21;82.59;98528.66;5073701;28;20115;-73
2022/12/15 02:17:50;;;;;;;4.97;3.75;;;;;;;0.18;82.57;98527.72;5057145;28;20048;-74
2022/12/15 02:20:43;;;;;;;1.95;1.85;;;;;;;0.16;83.41;98544.41;5075610;28;20048;-72
2022/12/15 02:23:44;;;;;;;2.72;2.47;;;;;;;0.13;83.49;98557.72;5075663;28;20119;-73
2022/12/15 02:26:37;;;;;;;1.95;1.83;;;;;;;0.15;83.29;98555.22;5075701;28;20048;-73
2022/12/15 02:29:21;;;;;;;1.35;1.25;;;;;;;0.12;83.96;98562.72;5062012;28;20056;-73
2022/12/15 02:31:58;;;;;;;2.70;2.53;;;;;;;0.13;84.28;98570.25;5068959;28;20040;-72
2022/12/15 02:34:34;;;;;;;1.52;1.45;;;;;;;0.14;83.77;98563.59;5058989;28;20410;-72
2022/12/15 02:37:10;;;;;;;3.45;1.90;;;;;;;0.17;84.70;98563.66;5074958;28;20044;-71
2022/12/15 02:39:39;;;;;;;2.65;2.45;;;;;;;0.18;84.94;98570.34;5071789;28;20051;-72
2022/12/15 02:42:10;;;;;;;0.88;0.88;;;;;;;0.20;84.58;98578.75;5074812;28;20048;-74
2022/12/15 02:44:44;;;;;;;5.90;4.45;;;;;;;0.17;84.94;98576.22;5074780;28;20052;-73
2022/12/15 02:47:23;;;;;;;3.10;2.90;;;;;;;0.07;85.18;98557.59;5053070;28;20425;-72
2022/12/15 02:50:17;;;;;;;1.67;1.58;;;;;;;0.17;84.96;98567.00;5053922;28;20045;-73
2022/12/15 02:53:01;;;;;;;0.90;0.90;;;;;;;0.19;85.12;98562.03;5054320;28;20406;-73
2022/12/15 02:55:39;;;;;;;1.55;1.08;;;;;;;0.19;85.63;98567.06;5053799;28;20099;-72
2022/12/15 02:58:15;;;;;;;0.80;0.77;;;;;;;0.17;85.27;98568.69;5057409;28;20047;-73
2022/12/15 03:00:50;;;;;;;2.25;2.08;;;;;;;0.17;85.89;98576.22;5066885;28;20053;-73
2022/12/15 03:03:22;;;;;;;0.90;0.90;;;;;;;0.15;85.86;98587.84;5068082;28;20079;-73
2022/12/15 03:05:54;;;;;;;2.45;2.25;;;;;;;0.13;85.90;98574.41;5060246;28;20503;-73
2022/12/15 03:08:24;;;;;;;1.65;1.55;;;;;;;0.14;86.12;98573.63;5057962;28;20098;-73
2022/12/15 03:10:54;;;;;;;1.88;1.77;;;;;;;0.10;85.99;98556.81;5072082;28;20048;-73
2022/12/15 03:13:23;;;;;;;3.03;2.83;;;;;;;0.13;86.74;98571.91;5072690;28;20044;-73
2022/12/15 03:15:53;;;;;;;1.53;1.43;;;;;;;0.11;86.33;98571.03;5068443;28;20499;-72
2022/12/15 03:18:23;;;;;;;2.45;2.30;;;;;;;0.07;86.85;98571.78;5055426;28;20522;-74
2022/12/15 03:20:52;;;;;;;2.55;2.35;;;;;;;0.09;86.46;98588.56;5056506;28;20045;-71
2022/12/15 03:23:21;;;;;;;2.95;2.72;;;;;;;0.09;86.77;98590.22;5070106;28;20044;-72
2022/12/15 03:25:50;;;;;;;1.67;1.58;;;;;;;0.08;86.75;98579.34;5073922;28;20049;-73
2022/12/15 03:28:19;;;;;;;3.38;2.88;;;;;;;0.07;86.65;98574.31;5074732;28;20066;-72
2022/12/15 03:30:49;;;;;;;3.45;3.13;;;;;;;0.05;86.93;98581.78;5066928;28;20044;-72
2022/12/15 03:33:20;;;;;;;3.03;2.83;;;;;;;0.05;87.23;98588.47;5060744;28;20049;-72
2022/12/15 03:35:50;;;;;;;4.15;3.58;;;;;;;0.06;87.07;98592.66;5071358;28;20127;-72
2022/12/15 03:38:19;;;;;;;1.02;0.98;;;;;;;0.06;87.30;98595.16;5054064;28;20048;-71
2022/12/15 03:40:48;;;;;;;2.05;1.95;;;;;;;0.05;87.10;98606.03;5054000;28;20430;-73
2022/12/15 03:43:16;;;;;;;4.05;1.85;;;;;;;0.09;87.47;98597.75;5052857;28;20499;-72
2022/12/15 03:45:45;;;;;;;0.77;0.75;;;;;;;0.12;87.33;98607.84;5052699;28;20044;-72
2022/12/15 03:48:14;;;;;;;1.17;1.10;;;;;;;0.10;87.38;98604.47;5053635;28;20048;-73
2022/12/15 03:50:43;;;;;;;2.00;1.80;;;;;;;0.12;87.84;98608.69;5053193;28;20044;-73
2022/12/15 03:53:14;;;;;;;2.17;1.90;;;;;;;0.16;87.96;98620.50;5053049;28;20076;-73
2022/12/15 03:55:43;;;;;;;2.13;1.98;;;;;;;0.18;87.85;98615.50;5053840;28;20406;-71
2022/12/15 03:58:11;;;;;;;2.67;2.47;;;;;;;0.19;88.05;98617.22;5053528;28;20045;-72
2022/12/15 04:00:40;;;;;;;1.30;1.20;;;;;;;0.18;87.68;98607.97;5055145;28;20498;-72
2022/12/15 04:03:11;;;;;;;0.70;0.70;;;;;;;0.23;87.72;98621.47;5055419;28;20166;-73
2022/12/15 04:05:40;;;;;;;6.45;2.90;;;;;;;0.23;88.24;98636.53;5073485;28;20040;-73
2022/12/15 04:08:09;;;;;;;3.20;2.90;;;;;;;0.19;87.77;98619.72;5073218;28;20049;-72
2022/12/15 04:10:39;;;;;;;5.95;4.13;;;;;;;0.24;87.76;98640.75;5069318;28;20487;-72
2022/12/15 04:13:10;;;;;;;1.60;1.48;;;;;;;0.28;87.61;98645.00;5052598;28;20533;-72
2022/12/15 04:15:40;;;;;;;2.38;2.25;;;;;;;0.27;88.13;98654.19;5056983;28;20087;-72
2022/12/15 04:18:10;;;;;;;2.42;2.22;;;;;;;0.28;88.23;98660.06;5073917;28;20505;-71
2022/12/15 04:20:39;;;;;;;;;;;;;;;0.29;87.95;98664.28;5073723;28;20528;-71
2022/12/15 04:23:08;;;;;;;0.73;0.73;;;;;;;0.22;88.46;98644.84;5071339;28;19931;-72
2022/12/15 05:32:01;;;;;;;5.30;2.83;;;;;;;0.36;88.94;98731.34;5062953;28;20082;-72
2022/12/15 05:34:31;;;;;;;1.73;1.45;;;;;;;0.36;89.06;98742.22;5056335;28;20037;-72
2022/12/15 05:37:02;;;;;;;5.47;3.13;;;;;;;0.36;89.29;98753.94;5056340;28;20045;-71
2022/12/15 05:39:31;;;;;;;2.72;2.53;;;;;;;0.35;89.42;98757.22;5055729;28;20132;-72
2022/12/15 05:42:00;;;;;;;2.00;1.90;;;;;;;0.35;89.38;98762.25;5055958;28;20487;-72
2022/12/15 05:44:29;;;;;;;1.95;1.85;;;;;;;0.36;89.30;98771.50;5055230;28;20049;-71
2022/12/15 05:46:58;;;;;;;2.38;2.17;;;;;;;0.38;89.37;98779.91;5058011;28;20518;-71
2022/12/15 05:49:28;;;;;;;3.55;2.88;;;;;;;0.39;89.72;98794.13;5057249;28;20037;-72
2022/12/15 05:51:57;;;;;;;3.17;2.50;;;;;;;0.43;89.94;98790.91;5056374;28;20045;-72
2022/12/15 05:54:25;;;;;;;4.22;3.90;;;;;;;0.43;89.36;98788.41;5054867;28;20037;-72
2022/12/15 05:56:54;;;;;;;0.82;0.80;;;;;;;0.46;89.47;98798.47;5055892;28;20055;-72
2022/12/15 05:59:22;;;;;;;3.70;3.50;;;;;;;0.46;90.18;98811.03;5057512;28;20033;-73
2022/12/15 06:01:51;;;;;;;5.38;4.88;;;;;;;0.46;89.42;98806.00;5064986;28;20398;-72
2022/12/15 06:04:20;;;;;;;2.27;2.07;;;;;;;0.47;89.40;98808.56;5075857;28;20131;-72
2022/12/15 06:06:50;;;;;;;2.03;1.92;;;;;;;0.49;89.49;98806.94;5065945;28;20099;-72
2022/12/15 06:09:19;;;;;;;4.35;3.63;;;;;;;0.51;90.15;98797.78;5055225;28;20068;-73
2022/12/15 06:11:47;;;;;;;3.00;2.03;;;;;;;0.50;89.61;98787.72;5056564;28;20091;-72
2022/12/15 06:14:16;;;;;;;4.05;2.65;;;;;;;0.49;90.25;98791.03;5056973;28;20491;-71
2022/12/15 06:16:45;;;;;;;2.73;2.60;;;;;;;0.51;89.45;98804.47;5072373;28;20486;-71
2022/12/15 06:19:18;;;;;;;5.88;5.35;;;;;;;0.51;90.08;98804.47;5066713;28;20348;-72
2022/12/15 06:21:46;;;;;;;3.20;1.95;;;;;;;0.52;89.79;98811.19;5061750;28;20368;-72
2022/12/15 06:24:17;;;;;;;2.13;1.98;;;;;;;0.51;90.03;98809.50;5054416;28;20049;-71
2022/12/15 06:26:47;;;;;;;4.90;4.32;;;;;;;0.52;90.12;98826.25;5058601;28;20041;-72
2022/12/15 06:29:17;;;;;;;8.40;5.22;;;;;;;0.50;89.47;98826.22;5055532;28;20049;-72
2022/12/15 06:31:46;;;;;;;1.73;1.60;;;;;;;0.51;90.35;98824.53;5069954;28;20421;-72
2022/12/15 06:34:16;;;;;;;2.00;1.85;;;;;;;0.50;89.59;98822.88;5062030;28;20286;-72
2022/12/15 06:36:46;;;;;;;4.05;3.75;;;;;;;0.50;89.83;98827.88;5056128;28;20510;-72
2022/12/15 06:39:17;;;;;;;1.73;1.63;;;;;;;0.50;90.08;98827.88;5054946;28;20045;-72
2022/12/15 06:41:46;;;;;;;3.03;2.78;;;;;;;0.52;90.19;98831.28;5054837;28;20052;-72
2022/12/15 06:44:16;;;;;;;6.28;2.60;;;;;;;0.55;90.08;98831.38;5057930;28;20499;-71
2022/12/15 06:46:45;;;;;;;3.20;2.90;;;;;;;0.57;90.16;98839.78;5070988;28;20406;-72
2022/12/15 06:49:14;;;;;;;1.63;1.52;;;;;;;0.56;89.90;98843.09;5075809;28;20048;-73
2022/12/15 06:51:43;;;;;;;;;;;;;;;0.58;89.80;98841.44;5072537;28;20041;-72
2022/12/15 06:54:12;;;;;;;1.40;1.30;;;;;;;0.61;89.55;98837.38;5066555;28;19920;-72
2022/12/15 06:56:42;;;;;;;8.37;4.23;;;;;;;0.64;90.49;98841.63;5053515;28;20550;-72
2022/12/15 06:59:12;;;;;;;3.67;3.42;;;;;;;0.65;89.86;98843.31;5056347;28;20075;-72
2022/12/15 07:01:41;;;;;;;7.03;6.38;;;;;;;0.67;90.31;98846.72;5062044;28;20107;-71
2022/12/15 07:04:10;;;;;;;;;;;;;;;0.68;90.27;98850.91;5059151;28;20037;-71
2022/12/15 07:06:41;;;;;;;1.52;1.42;;;;;;;0.68;89.91;98861.81;5065530;28;19928;-71
2022/12/15 07:09:16;;;;;;;8.95;4.28;;;;;;;0.68;89.84;98874.38;5074227;28;20044;-72
2022/12/15 07:11:49;;;;;;;2.83;2.63;;;;;;;0.70;89.74;98873.56;5074624;28;20110;-74
2022/12/15 07:14:17;;;;;;;2.05;1.92;;;;;;;0.68;90.40;98868.50;5058926;28;20041;-71
2022/12/15 07:16:46;;;;;;;4.65;3.75;;;;;;;0.61;90.14;98852.44;5072309;28;20037;-72
2022/12/15 07:19:15;;;;;;;2.30;2.15;;;;;;;0.67;89.69;98879.34;5058769;28;20065;-72
2022/12/15 07:21:46;;;;;;;6.20;4.00;;;;;;;0.67;89.67;98884.38;5068822;28;20052;-74
2022/12/15 07:24:16;;;;;;;2.88;2.63;;;;;;;0.67;90.04;98876.84;5074248;28;20131;-73
2022/12/15 07:26:47;;;;;;;10.90;2.33;;;;;;;0.66;90.14;98865.94;5056218;28;21876;-75
2022/12/15 07:29:16;;;;;;;2.60;2.40;;;;;;;0.62;89.62;98878.41;5053999;28;20388;-73
2022/12/15 07:31:51;;;;;;;2.85;2.65;;;;;;;0.59;89.61;98863.25;5054159;28;20114;-74
2022/12/15 07:34:20;;;;;;;0.90;0.90;;;;;;;0.60;90.20;98875.81;5054172;28;20044;-74
2022/12/15 07:36:50;;;;;;;2.58;2.38;;;;;;;0.60;89.94;98875.00;5054129;28;20048;-71
2022/12/15 07:39:20;;;;;;;3.65;2.95;;;;;;;0.58;90.25;98886.63;5053894;28;20126;-74
2022/12/15 07:41:51;;;;;;;;;;;;;;;0.59;90.44;98883.31;5054923;28;20500;-73
2022/12/15 07:44:20;;;;;;;2.50;2.33;;;;;;;0.62;90.01;98894.28;5052717;28;20393;-74
2022/12/15 07:46:49;;;;;;;5.87;4.07;;;;;;;0.61;90.03;98896.75;5053639;28;20049;-73
2022/12/15 07:49:25;;;;;;;4.27;3.97;;;;;;;0.60;90.56;98897.59;5035668;28;20041;-71
2022/12/15 07:51:57;;;;;;;5.40;4.72;;;;;;;0.57;90.39;98880.78;5052189;28;20041;-71
2022/12/15 07:54:31;;;;;;;4.75;4.18;;;;;;;0.48;90.42;98867.16;5052782;28;20060;-71
2022/12/15 07:57:02;;;;;;;4.13;3.67;;;;;;;0.53;89.89;98879.00;5053540;28;20033;-76
2022/12/15 07:59:31;;;;;;;6.35;3.90;;;;;;;0.48;90.21;98874.69;5053828;28;20441;-71
2022/12/15 08:02:00;;;;;;;3.25;2.75;;;;;;;0.55;90.21;98887.41;5023229;28;20047;-75
2022/12/15 08:04:29;;;;;;;3.50;2.83;;;;;;;0.56;90.27;98874.06;5053329;28;20099;-72
2022/12/15 08:06:59;;;;;;;7.60;4.55;;;;;;;0.60;90.40;98885.03;5036286;28;20051;-73
2022/12/15 08:09:27;;;;;;;1.88;1.77;;;;;;;0.62;90.73;98889.25;5035969;28;20450;-74
2022/12/15 08:11:56;;;;;;;2.90;2.53;;;;;;;0.67;90.24;98904.47;5053630;28;20442;-75
2022/12/15 08:14:27;;;;;;;2.75;2.55;;;;;;;0.70;90.37;98909.53;5053345;28;20048;-75
2022/12/15 08:16:56;;;;;;;2.15;1.98;;;;;;;0.72;90.74;98915.44;5053260;28;20037;-75
2022/12/15 08:19:24;;;;;;;3.05;2.83;;;;;;;0.73;91.04;98923.84;5053337;28;20037;-75
2022/12/15 08:21:53;;;;;;;5.47;3.35;;;;;;;0.72;90.97;98919.66;5063102;28;20029;-74
2022/12/15 08:24:22;;;;;;;2.97;2.70;;;;;;;0.75;90.59;98914.69;5061611;28;20048;-75
2022/12/15 08:26:51;;;;;;;6.20;3.88;;;;;;;0.77;90.58;98923.13;5056105;28;20072;-75
2022/12/15 08:29:22;;;;;;;2.63;2.42;;;;;;;0.79;90.98;98931.53;5053532;28;20048;-71
2022/12/15 08:32:13;;;;;;;2.00;1.90;;;;;;;0.79;90.93;98931.53;5053155;28;20040;-74
2022/12/15 08:34:42;;;;;;;0.77;0.77;;;;;;;0.80;90.92;98934.09;5053107;28;20052;-74
2022/12/15 08:37:11;;;;;;;1.47;1.37;;;;;;;0.79;90.24;98942.44;5053047;28;20051;-74
2022/12/15 08:39:39;;;;;;;9.57;5.00;;;;;;;0.78;91.00;98944.91;5053088;28;20038;-71
2022/12/15 08:42:11;;;;;;;3.10;2.45;;;;;;;0.79;90.59;98942.44;5053375;28;20037;-71
2022/12/15 08:44:41;;;;;;;1.95;1.85;;;;;;;0.81;90.63;98939.97;4993762;28;20557;-72
2022/12/15 08:47:11;;;;;;;3.47;2.35;;;;;;;0.84;90.58;98945.06;4962637;28;20042;-74
2022/12/15 08:49:40;;;;;;;1.80;1.70;;;;;;;0.87;90.99;98956.03;4992085;28;20057;-73
2022/12/15 08:52:09;;;;;;;7.05;6.35;;;;;;;0.93;90.53;98953.69;4979242;28;20046;-71
2022/12/15 08:54:39;;;;;;;1.90;1.75;;;;;;;0.99;91.21;98963.88;4995803;28;20057;-73
2022/12/15 08:57:07;;;;;;;8.20;4.57;;;;;;;1.03;90.70;98970.66;4995253;28;20511;-74
2022/12/15 08:59:36;;;;;;;4.72;3.10;;;;;;;1.06;91.04;98968.22;4997511;28;20042;-72
2022/12/15 09:02:05;;;;;;;6.78;4.72;;;;;;;1.08;90.20;98950.72;5014661;28;20128;-73
2022/12/15 09:04:36;;;;;;;2.42;2.22;;;;;;;1.06;90.92;98953.16;5056838;28;20041;-73
2022/12/15 09:07:05;;;;;;;7.03;3.80;;;;;;;1.05;90.97;98960.66;5067027;28;20052;-73
2022/12/15 09:09:34;;;;;;;2.17;1.88;;;;;;;1.06;90.80;98958.19;5056458;28;20057;-73
2022/12/15 09:12:04;;;;;;;1.90;1.80;;;;;;;1.05;90.63;98966.56;5063003;28;20516;-72
2022/12/15 09:14:33;;;;;;;4.28;3.08;;;;;;;1.12;91.09;98973.44;5075766;28;20044;-71
2022/12/15 09:17:03;;;;;;;4.45;3.63;;;;;;;1.20;91.19;98971.94;5076706;28;20082;-72
2022/12/15 09:19:33;;;;;;;14.25;6.75;;;;;;;1.29;90.69;98963.78;5075673;28;20548;-71
2022/12/15 09:22:06;;;;;;;1.23;1.13;;;;;;;1.34;90.97;98950.50;5068126;28;20045;-71
2022/12/15 09:24:35;;;;;;;7.75;2.92;;;;;;;1.41;90.42;98955.69;5060733;28;20045;-70
2022/12/15 09:27:04;;;;;;;4.97;4.47;;;;;;;1.51;90.91;98947.53;5057355;28;20510;-69
2022/12/15 09:29:33;;;;;;;2.20;1.73;;;;;;;1.58;90.73;98934.28;5056182;28;20052;-70
2022/12/15 09:32:02;;;;;;;6.77;5.63;;;;;;;1.53;90.47;98915.75;5056152;28;20041;-70
2022/12/15 09:34:36;;;;;;;3.78;2.67;;;;;;;1.57;90.14;98937.63;5056131;28;20075;-71
2022/12/15 09:37:06;;;;;;;6.55;3.30;;;;;;;1.60;90.17;98947.75;5054909;28;20410;-73
2022/12/15 09:39:36;;;;;;;2.85;2.63;;;;;;;1.61;90.42;98934.38;5055047;28;20049;-74
2022/12/15 09:42:05;;;;;;;6.20;3.97;;;;;;;1.73;90.40;98944.69;5063230;28;20493;-76
2022/12/15 09:44:34;;;;;;;;;;;;;;;2.04;90.39;98952.06;5060755;28;20123;-68
2022/12/15 09:47:17;;;;;;;19.73;4.60;;;;;;;2.43;90.84;98947.84;5061758;28;19920;-66
2022/12/15 09:49:55;;;;;;;3.33;2.65;;;;;;;2.50;89.52;98933.69;5056011;28;20552;-68
2022/12/15 09:52:29;;;;;;;2.60;2.40;;;;;;;2.34;89.42;98940.13;5055847;28;20075;-70
2022/12/15 09:54:58;;;;;;;17.95;3.83;;;;;;;2.32;89.10;98949.31;5055778;28;20491;-71
2022/12/15 09:57:36;;;;;;;3.72;3.42;;;;;;;2.33;89.43;98935.91;5055899;28;20091;-70
2022/12/15 10:00:20;;;;;;;0.82;0.82;;;;;;;2.39;89.41;98941.06;5062474;28;20056;-69
2022/12/15 10:03:11;;;;;;;2.72;2.53;;;;;;;2.40;89.26;98932.66;5056752;28;20495;-69
2022/12/15 10:05:56;;;;;;;2.88;2.67;;;;;;;2.44;89.07;98942.00;5055556;28;20049;-68
2022/12/15 10:08:50;;;;;;;3.42;3.22;;;;;;;2.43;89.16;98947.84;5055459;28;20045;-68
2022/12/15 10:11:26;;;;;;;4.25;3.85;;;;;;;2.45;88.08;98945.34;5055400;28;20119;-68
2022/12/15 10:14:05;;;;;;;4.68;3.25;;;;;;;2.46;88.91;98947.91;5056955;28;20052;-69
2022/12/15 10:16:51;;;;;;;4.70;2.90;;;;;;;2.46;88.04;98963.03;5075448;28;20444;-68
2022/12/15 10:19:31;;;;;;;3.45;2.80;;;;;;;2.46;88.09;98960.50;5075466;28;20506;-65
2022/12/15 10:22:00;;;;;;;5.22;4.72;;;;;;;2.45;88.65;98970.53;5075580;28;20044;-67
2022/12/15 10:24:32;;;;;;;3.83;2.70;;;;;;;2.48;87.87;98966.41;5075526;28;20037;-66
2022/12/15 10:27:34;;;;;;;1.55;1.40;;;;;;;2.46;87.30;98952.94;5075404;28;20055;-67
2022/12/15 10:30:06;;;;;;;3.50;3.25;;;;;;;2.41;87.94;98953.66;5075125;28;20074;-67
2022/12/15 10:32:48;;;;;;;6.35;1.73;;;;;;;2.44;87.10;98963.81;5075669;28;20052;-66
2022/12/15 10:35:22;;;;;;;3.60;2.80;;;;;;;2.46;87.79;98963.03;5067791;28;20048;-69
2022/12/15 10:37:51;;;;;;;9.05;4.47;;;;;;;2.49;86.97;98963.09;5063211;28;20053;-69
2022/12/15 10:40:46;;;;;;;8.25;4.45;;;;;;;2.48;87.29;98961.38;5074850;28;20050;-70
2022/12/15 10:43:26;;;;;;;3.78;3.47;;;;;;;2.49;86.97;98959.72;5074840;28;20068;-69
2022/12/15 10:46:05;;;;;;;10.10;4.15;;;;;;;2.48;87.06;98960.53;5074823;28;20060;-69
2022/12/15 10:48:33;;;;;;;2.90;2.70;;;;;;;2.44;86.57;98966.31;5075093;28;20059;-69
2022/12/15 10:51:19;;;;;;;8.35;3.85;;;;;;;2.46;86.58;98958.00;5055676;28;20033;-70
2022/12/15 10:53:49;;;;;;;3.63;3.17;;;;;;;2.43;86.97;98962.09;5054288;28;20079;-71
2022/12/15 10:56:23;;;;;;;1.40;1.30;;;;;;;2.41;87.00;98974.66;5072993;28;20049;-71
2022/12/15 10:59:24;;;;;;;1.58;1.48;;;;;;;2.45;86.26;98983.97;5054893;28;20049;-68
2022/12/15 11:01:53;;;;;;;11.65;3.55;;;;;;;2.50;86.27;98992.47;5054820;28;20052;-69
2022/12/15 11:04:27;;;;;;;6.10;3.17;;;;;;;2.50;86.15;98995.00;5054721;28;20048;-69
2022/12/15 11:06:58;;;;;;;5.30;3.88;;;;;;;2.45;86.35;98975.56;5058676;28;20072;-69
2022/12/15 11:09:33;;;;;;;4.20;2.83;;;;;;;2.47;86.52;98984.84;5063608;28;20094;-69
2022/12/15 11:14:56;;;;;;;2.05;1.77;;;;;;;2.49;85.91;98978.19;5054415;28;20075;-69
2022/12/15 11:17:25;;;;;;;5.25;2.40;;;;;;;2.49;85.78;98970.66;5054095;28;20056;-69
2022/12/15 11:20:00;;;;;;;1.30;1.20;;;;;;;2.52;86.42;98963.13;5054657;28;20047;-69
2022/12/15 11:22:40;;;;;;;2.67;2.47;;;;;;;2.53;86.13;98962.31;5054209;28;20509;-68
2022/12/15 11:25:33;;;;;;;2.97;2.15;;;;;;;2.58;86.54;98963.25;5054053;28;20049;-68
2022/12/15 11:28:11;;;;;;;1.70;1.45;;;;;;;2.59;85.43;98959.06;5054355;28;20079;-69
2022/12/15 11:30:45;;;;;;;4.07;2.13;;;;;;;2.61;85.54;98948.22;5053964;28;20518;-68
2022/12/15 11:33:14;;;;;;;1.73;1.63;;;;;;;2.53;85.17;98944.69;5053952;28;20083;-68
2022/12/15 11:35:56;;;;;;;4.03;3.67;;;;;;;2.44;85.79;98954.59;5053870;28;20037;-69
2022/12/15 11:38:34;;;;;;;3.40;2.78;;;;;;;2.43;85.60;98949.50;5053781;28;20102;-68
2022/12/15 11:41:13;;;;;;;1.77;1.67;;;;;;;2.48;85.78;98950.44;5055907;28;20041;-69
2022/12/15 11:44:05;;;;;;;2.97;2.60;;;;;;;2.52;84.68;98948.00;5062941;28;20044;-68
2022/12/15 11:46:43;;;;;;;9.23;3.30;;;;;;;2.51;84.64;98946.34;5054275;28;20384;-70
2022/12/15 11:49:39;;;;;;;2.08;1.88;;;;;;;2.50;84.77;98946.28;5053716;28;20060;-69
2022/12/15 11:52:17;;;;;;;17.13;3.45;;;;;;;2.51;84.72;98951.38;5053660;28;20128;-69
2022/12/15 11:54:53;;;;;;;0.95;0.95;;;;;;;2.50;85.29;98939.59;5053631;28;20049;-68
2022/12/15 11:57:45;;;;;;;3.55;3.25;;;;;;;2.57;84.32;98951.47;5062181;28;20063;-69
2022/12/15 12:00:22;;;;;;;2.72;2.15;;;;;;;2.54;84.32;98948.06;5053425;28;20045;-68
2022/12/15 12:03:04;;;;;;;5.78;3.70;;;;;;;2.50;84.75;98959.72;5053201;28;20047;-68
2022/12/15 12:05:45;;;;;;;2.30;2.05;;;;;;;2.46;85.04;98960.50;5053563;28;20052;-67
2022/12/15 12:08:31;;;;;;;1.77;1.65;;;;;;;2.49;84.19;98963.09;5053595;28;20045;-67
2022/12/15 12:11:09;;;;;;;4.15;3.40;;;;;;;2.46;84.20;98952.09;5053332;28;20041;-67
2022/12/15 12:13:50;;;;;;;5.25;3.33;;;;;;;2.45;83.94;98943.69;5053410;28;20068;-67
2022/12/15 12:16:32;;;;;;;2.63;2.08;;;;;;;2.39;84.22;98951.13;5053399;28;20057;-69
2022/12/15 12:19:05;;;;;;;2.38;2.17;;;;;;;2.42;84.57;98958.75;5053209;28;20049;-68
2022/12/15 12:21:37;;;;;;;2.45;2.25;;;;;;;2.46;84.57;98967.19;5053384;28;20045;-68
2022/12/15 12:24:16;;;;;;;7.95;3.67;;;;;;;2.43;84.15;98962.94;5053405;28;20524;-67
2022/12/15 12:26:47;;;;;;;3.50;3.20;;;;;;;2.40;84.49;98967.91;5057267;28;20045;-69
2022/12/15 12:29:21;;;;;;;2.22;2.10;;;;;;;2.39;84.28;98966.25;5057277;28;20045;-69
2022/12/15 12:32:01;;;;;;;2.40;2.28;;;;;;;2.40;83.73;98957.84;5058202;28;20475;-68
2022/12/15 12:34:45;;;;;;;9.57;4.28;;;;;;;2.37;83.95;98965.38;5057533;28;20518;-68
2022/12/15 12:37:25;;;;;;;4.10;3.38;;;;;;;2.27;83.81;98966.00;5057625;28;20037;-69
2022/12/15 12:40:01;;;;;;;2.88;2.65;;;;;;;2.14;83.34;98979.13;5057132;28;20049;-67
2022/12/15 12:42:38;;;;;;;2.80;2.47;;;;;;;2.01;83.67;98973.00;5057718;28;20484;-68
2022/12/15 12:45:12;;;;;;;7.13;3.83;;;;;;;2.01;83.92;98967.97;5056447;28;20052;-67
2022/12/15 12:47:49;;;;;;;3.67;3.20;;;;;;;2.01;84.58;98973.00;5065724;28;20049;-68
2022/12/15 12:50:20;;;;;;;4.47;2.33;;;;;;;1.96;84.00;98973.72;5056997;28;20055;-67
2022/12/15 12:52:52;;;;;;;3.70;3.00;;;;;;;1.95;84.40;98977.88;5056958;28;20098;-67
2022/12/15 12:55:29;;;;;;;4.60;4.20;;;;;;;1.93;84.74;98968.59;5057512;28;20114;-67
2022/12/15 12:57:58;;;;;;;3.90;3.53;;;;;;;1.96;85.46;98981.25;5056834;28;20049;-66
2022/12/15 13:00:30;;;;;;;3.10;2.35;;;;;;;1.94;85.07;98982.91;5057182;28;20548;-67
2022/12/15 13:03:20;;;;;;;1.75;1.52;;;;;;;1.97;85.07;98990.50;5064779;28;20063;-66
2022/12/15 13:05:51;;;;;;;2.47;2.28;;;;;;;1.97;85.42;98987.97;5061557;28;20065;-67
2022/12/15 13:08:44;;;;;;;1.98;1.77;;;;;;;1.98;85.32;98982.16;5056422;28;20053;-67
2022/12/15 13:11:40;;;;;;;3.40;3.10;;;;;;;1.99;85.63;98993.91;5055767;28;20049;-66
2022/12/15 13:14:15;;;;;;;10.13;4.25;;;;;;;1.98;86.30;98992.22;5057216;28;20049;-68
2022/12/15 13:16:57;;;;;;;5.93;3.58;;;;;;;1.98;85.87;98977.97;5056739;28;20403;-67
2022/12/15 13:20:09;;;;;;;5.57;3.58;;;;;;;2.02;85.89;98993.97;5056504;28;20041;-67
2022/12/15 13:22:40;;;;;;;3.47;3.17;;;;;;;2.02;86.75;98988.94;5056391;28;20048;-68
2022/12/15 13:25:41;;;;;;;3.50;3.20;;;;;;;2.00;86.66;98985.53;5062122;28;20045;-68
2022/12/15 13:28:41;;;;;;;1.80;1.70;;;;;;;1.97;86.44;98986.31;5056106;28;20400;-66
2022/12/15 13:31:32;;;;;;;4.03;2.50;;;;;;;1.93;86.56;98978.66;5056146;28;20049;-67
2022/12/15 13:34:16;;;;;;;2.20;2.10;;;;;;;1.96;85.99;98983.78;5056420;28;20099;-67
2022/12/15 13:36:56;;;;;;;2.30;2.10;;;;;;;1.96;86.20;98988.81;5055730;28;20053;-67
2022/12/15 13:39:55;;;;;;;6.88;2.65;;;;;;;1.97;86.06;98995.53;5065659;28;20479;-67
2022/12/15 13:42:36;;;;;;;1.92;1.83;;;;;;;1.94;86.50;99000.50;5076312;28;20075;-66
2022/12/15 13:45:35;;;;;;;3.35;2.10;;;;;;;1.93;86.26;99013.91;5058875;28;20053;-66
2022/12/15 13:48:36;;;;;;;2.05;1.95;;;;;;;1.90;87.22;99018.84;5055918;28;20037;-67
2022/12/15 13:51:24;;;;;;;3.72;3.40;;;;;;;1.92;87.15;99022.28;5064221;28;20059;-67
2022/12/15 13:53:59;;;;;;;5.45;3.92;;;;;;;1.92;86.82;99032.34;5075211;28;20127;-66
2022/12/15 13:56:55;;;;;;;2.45;2.25;;;;;;;1.89;87.09;99038.16;5061954;28;20041;-67
2022/12/15 13:59:34;;;;;;;3.08;2.88;;;;;;;1.92;87.03;99037.38;5054045;28;20056;-66
2022/12/15 14:02:03;;;;;;;3.83;2.92;;;;;;;1.94;87.44;99043.28;5056033;28;20073;-66
2022/12/15 14:04:32;;;;;;;4.47;3.40;;;;;;;1.93;86.52;99049.13;5055345;28;20053;-69
2022/12/15 14:07:02;;;;;;;5.35;2.97;;;;;;;1.95;87.05;99048.34;5055585;28;20461;-67
2022/12/15 14:09:35;;;;;;;3.08;2.83;;;;;;;1.93;87.41;99044.09;5055577;28;20049;-66
2022/12/15 14:12:11;;;;;;;4.10;3.55;;;;;;;1.92;86.59;99047.44;5055612;28;20037;-67
2022/12/15 14:14:48;;;;;;;4.60;3.72;;;;;;;1.90;86.79;99059.97;5055384;28;20049;-67
2022/12/15 14:17:18;;;;;;;3.17;2.88;;;;;;;1.90;87.63;99064.13;5054778;28;20114;-68
2022/12/15 14:19:49;;;;;;;2.95;2.33;;;;;;;1.91;87.58;99065.84;5058951;28;20048;-66
2022/12/15 14:22:23;;;;;;;10.77;6.28;;;;;;;1.89;87.09;99060.78;5060029;28;20037;-67
2022/12/15 14:25:02;;;;;;;5.00;2.63;;;;;;;1.87;87.12;99064.06;5055282;28;20057;-66
2022/12/15 14:27:33;;;;;;;2.72;2.22;;;;;;;1.85;87.55;99046.41;5055285;28;20045;-66
2022/12/15 14:30:28;;;;;;;3.88;3.42;;;;;;;1.85;86.71;99031.31;5055433;28;20045;-66
2022/12/15 14:33:02;;;;;;;2.80;1.77;;;;;;;1.87;86.55;99024.66;5055129;28;20037;-66
2022/12/15 14:35:36;;;;;;;1.23;1.13;;;;;;;1.85;86.92;99010.34;5055788;28;20053;-66
2022/12/15 14:38:12;;;;;;;2.08;1.88;;;;;;;1.82;87.39;99015.34;5055026;28;20049;-66